AirNav  
 
 1151 users online  

CA84 Torrey Pines Gliderport
San Diego, California, USA

GOING TO SAN DIEGO?


FAA INFORMATION EFFECTIVE 09 NOVEMBER 2017

Location

FAA Identifier: CA84
Lat/Long: 32-53-23.0000N / 117-14-49.0000W
32-53.383333N / 117-14.816667W
32.8897222 / -117.2469444
(estimated)
Elevation: 372 ft. / 113 m (estimated)
Variation: 13E (1985)
From city: 11 miles NW of SAN DIEGO, CA
Time zone: UTC -8 (UTC -7 during Daylight Saving Time)
Zip code: 92037

Gliderport Operations

Gliderport use: Private use. Permission required prior to landing
Activation date: 11/1961
Control tower: no
ARTCC: LOS ANGELES CENTER
FSS: SAN DIEGO FLIGHT SERVICE STATION
Attendance: UNATNDD
Wind indicator: no
Segmented circle: no

Gliderport Communications

WX ASOS at MYF (7 nm SE): PHONE 858-576-4337
WX ASOS at SAN (10 nm S): PHONE 619-296-8934
WX AWOS-3P at SEE (14 nm E): 125.45 (619-449-1228)
WX ASOS at CRQ (14 nm N): PHONE 760-930-0864
WX ASOS at RNM (19 nm NE): 132.025 (760-789-0736)

Nearby radio navigation aids

VOR radial/distance  VOR name  Freq  Var
MZBr335/6.5MISSION BAY VORTAC117.8015E
PGYr307/21.5POGGI VORTAC109.8014E
OCNr143/22.7OCEANSIDE VORTAC115.3015E
TIJr311/25.7TIJUANA VOR/DME116.5014E
JLIr231/36.5JULIAN VORTAC114.0015E

Gliderport Services

Airframe service: NONE
Powerplant service: NONE

Runway Information

Runway 9/27

Dimensions: 1500 x 30 ft. / 457 x 9 m
Surface: asphalt
RUNWAY 9  RUNWAY 27
Traffic pattern: leftleft
Obstructions: nonetrees, 100 ft. from runway

Gliderport Ownership and Management from official FAA records

Ownership: Publicly-owned
Owner: CITY OF SAN DIEGO
Manager: JIM FROST
4740 HARBINSON AVE
LA MESA, CA 91941
Phone 619-461-9614
WORK PHONE 619-535-9505 EXT 1585

Additional Remarks

GLIDER PORT IS LEASED FM CITY TO THE ASSOCD GLIDER CLUB OF SOUTHERN CALIF FOR STUDENT TRAINING & RIDGE SOARING.
ALL ACFT ARE TRAILERED GLIDERS.
ROLLING RWY .6 PERCENT GRADIENT.
EXTENSIVE HANG GLIDER OPERATIONS ON WEEKENDS AND WEEKDAYS.

Instrument Procedures

There are no published instrument procedures at CA84.

Some nearby airports with instrument procedures:

KNKX - Miramar Marine Corps Air Station (5 nm E)
KMYF - Montgomery-Gibbs Executive Airport (7 nm SE)
KSAN - San Diego International Airport (10 nm S)
KNZY - North Island Naval Air Station (Halsey Field) (12 nm S)
KSEE - Gillespie Field Airport (14 nm E)
KCRQ - Mc Clellan-Palomar Airport (14 nm N)
KRNM - Ramona Airport (19 nm NE)
 
Loc | Ops | Rwys | IFR | FBO | Links
Com | Nav | Svcs | Stats | Notes


 
Area around CA84 (Torrey Pines Gliderport)
 
Road maps at: MapQuest Bing Google
 
Aerial photo
WARNING: Photo may not be current or correct
Aerial photo of CA84 (Torrey Pines Gliderport)
Photo by Doug Fronius
Photo taken 13-Mar-2004
from a 1942 Schweizer TG-2 sailplane.

Do you have a better or more recent aerial photo of Torrey Pines Gliderport that you would like to share? If so, please send us your photo.

 
Sectional chart

 
Airport distance calculator
Flying to Torrey Pines Gliderport? Find the distance to fly.

From to CA84

Sunrise and sunset
Times for 20-Nov-2017
 Local
(UTC-8)
 Zulu
(UTC)
Morning civil twilight05:5913:59
Sunrise06:2514:25
Sunset16:4400:44
Evening civil twilight17:1101:11

Current date and time
Zulu (UTC)  20-Nov-2017 23:13:26
Local (UTC-8)  20-Nov-2017 15:13:26
 
METAR
KNKX 
6nm E 
202255Z 29008KT 10SM SCT150 SCT200 25/02 A3000 RMK AO2 SLP152 T02500022 $
KMYF 
7nm SE 
202253Z 29006KT 10SM CLR 25/01 A3000 RMK AO2 SLP154 T02500011
KSAN 
10nm S 
202251Z 31007KT 10SM FEW140 SCT200 BKN250 22/07 A3000 RMK AO2 SLP159 T02170067 $
KNZY 
11nm S 
202252Z 32009KT 10SM FEW120 SCT200 BKN250 21/09 A2998 RMK SLP152 T02110094
KCRQ 
15nm N 
202253Z AUTO 27005KT 10SM CLR 21/07 A2999 RMK AO2 SLP152 T02060067
KSEE 
15nm E 
202247Z 28010KT 10SM SKC 24/02 A2999
KRNM 
19nm NE 
202253Z A3001 RMK AO2 SLPNO $
TAF
KNKX 
6nm E 
2021/2121 28008KT 9999 FEW250 QNH2995INS BECMG 2103/2105 VRB05KT 9999 FEW250 QNH2998INS BECMG 2116/2118 31008KT 9999 FEW250 QNH2999INS T08/2114Z T28/2121Z
KSAN 
10nm S 
202105Z 2021/2124 30007KT P6SM SCT200 FM210200 VRB05KT P6SM SCT200
KNZY 
11nm S 
2015/2115 VRB06KT 9999 SCT250 QNH2998INS FM202000 28008KT 9999 SCT250 520009 520903 QNH2995INS FM210300 VRB06KT 9999 FEW250 520009 520903 QNH2996INS T20/2021Z T10/2112Z COR 2025 FS30022
KCRQ 
15nm N 
201720Z 2018/2118 VRB06KT P6SM SCT200= TAF KSTS 201720Z 2018/2118 VRB03KT P6SM -SHRA BKN022 OVC040 WS020/21025KT TEMPO 2018/2020 2SM -RA BR OVC020 FM202000 15003KT 6SM -RA BR SCT012 BKN025 OVC040 FM210000 VRB03KT P6SM FEW012 SCT100 FM210500 11003KT 3/4SM BR VV002 FM210700 11004KT 1/4SM FG VV001 FM211400 00000KT 3SM BR OVC004 FM211730 VRB03KT P6SM FEW020 BKN120
NOTAMs
Click for the latest NOTAMs
NOTAMs are issued by the DoD/FAA and will open in a separate window not controlled by AirNav.

 

 
 

Would you like to see your business listed on this page?

 If your business provides an interesting product or service to pilots, flight crews, aircraft, or users of the Torrey Pines Gliderport, you should consider listing it here.  To start the listing process, click on the button below
 
Add a business
 

Other Pages about Torrey Pines Gliderport

www.agcsc.org/torrey_pines_info.html
 
Update a link
 
Copyright © AirNav, LLC. All rights reserved. Privacy Policy  Contact